sensor_id;sensor_type;location;lat;lon;timestamp;P1;durP1;ratioP1;P2;durP2;ratioP2
3415;SDS011;1721;51.238;9.562;2023-04-25T00:01:16;6.15;;;2.95;;
3415;SDS011;1721;51.238;9.562;2023-04-25T00:03:42;5.67;;;3.17;;
3415;SDS011;1721;51.238;9.562;2023-04-25T00:06:08;5.73;;;2.63;;
3415;SDS011;1721;51.238;9.562;2023-04-25T00:08:33;6.13;;;2.73;;
3415;SDS011;1721;51.238;9.562;2023-04-25T00:11:00;7.60;;;2.33;;
3415;SDS011;1721;51.238;9.562;2023-04-25T00:13:26;5.97;;;2.72;;
3415;SDS011;1721;51.238;9.562;2023-04-25T00:15:52;5.43;;;2.80;;
3415;SDS011;1721;51.238;9.562;2023-04-25T00:18:25;5.97;;;2.72;;
3415;SDS011;1721;51.238;9.562;2023-04-25T00:20:54;6.47;;;2.58;;
3415;SDS011;1721;51.238;9.562;2023-04-25T00:23:20;6.03;;;2.78;;
3415;SDS011;1721;51.238;9.562;2023-04-25T00:25:46;6.63;;;2.47;;
3415;SDS011;1721;51.238;9.562;2023-04-25T00:28:13;8.30;;;2.78;;
3415;SDS011;1721;51.238;9.562;2023-04-25T00:30:40;7.13;;;2.33;;
3415;SDS011;1721;51.238;9.562;2023-04-25T00:33:06;8.20;;;2.20;;
3415;SDS011;1721;51.238;9.562;2023-04-25T00:35:32;4.65;;;2.45;;
3415;SDS011;1721;51.238;9.562;2023-04-25T00:37:58;9.13;;;2.70;;
3415;SDS011;1721;51.238;9.562;2023-04-25T00:40:24;5.43;;;2.50;;
3415;SDS011;1721;51.238;9.562;2023-04-25T00:42:50;4.60;;;1.97;;
3415;SDS011;1721;51.238;9.562;2023-04-25T00:45:18;7.00;;;2.90;;
3415;SDS011;1721;51.238;9.562;2023-04-25T00:47:43;7.70;;;2.60;;
3415;SDS011;1721;51.238;9.562;2023-04-25T00:50:10;7.07;;;2.78;;
3415;SDS011;1721;51.238;9.562;2023-04-25T00:52:40;5.82;;;2.53;;
3415;SDS011;1721;51.238;9.562;2023-04-25T00:55:08;5.53;;;2.47;;
3415;SDS011;1721;51.238;9.562;2023-04-25T00:57:35;4.75;;;2.50;;
3415;SDS011;1721;51.238;9.562;2023-04-25T01:00:01;5.70;;;2.03;;
3415;SDS011;1721;51.238;9.562;2023-04-25T01:02:28;5.78;;;2.83;;
3415;SDS011;1721;51.238;9.562;2023-04-25T01:04:54;5.90;;;2.28;;
3415;SDS011;1721;51.238;9.562;2023-04-25T01:07:19;4.63;;;2.43;;
3415;SDS011;1721;51.238;9.562;2023-04-25T01:09:45;8.00;;;2.80;;
3415;SDS011;1721;51.238;9.562;2023-04-25T01:12:11;6.70;;;3.05;;
3415;SDS011;1721;51.238;9.562;2023-04-25T01:14:37;6.20;;;2.72;;
3415;SDS011;1721;51.238;9.562;2023-04-25T01:17:03;6.10;;;2.70;;
3415;SDS011;1721;51.238;9.562;2023-04-25T01:19:29;7.00;;;2.53;;
3415;SDS011;1721;51.238;9.562;2023-04-25T01:21:55;5.13;;;2.50;;
3415;SDS011;1721;51.238;9.562;2023-04-25T01:24:21;7.83;;;2.90;;
3415;SDS011;1721;51.238;9.562;2023-04-25T01:26:47;8.70;;;3.50;;
3415;SDS011;1721;51.238;9.562;2023-04-25T01:29:17;8.63;;;3.17;;
3415;SDS011;1721;51.238;9.562;2023-04-25T01:31:43;10.45;;;2.95;;
3415;SDS011;1721;51.238;9.562;2023-04-25T01:34:09;9.82;;;2.97;;
3415;SDS011;1721;51.238;9.562;2023-04-25T01:36:35;6.68;;;3.10;;
3415;SDS011;1721;51.238;9.562;2023-04-25T01:39:01;5.87;;;2.60;;
3415;SDS011;1721;51.238;9.562;2023-04-25T01:41:27;5.57;;;2.40;;
3415;SDS011;1721;51.238;9.562;2023-04-25T01:43:53;5.30;;;2.30;;
3415;SDS011;1721;51.238;9.562;2023-04-25T01:46:19;7.85;;;2.88;;
3415;SDS011;1721;51.238;9.562;2023-04-25T01:48:45;10.40;;;3.10;;
3415;SDS011;1721;51.238;9.562;2023-04-25T01:51:11;5.20;;;2.70;;
3415;SDS011;1721;51.238;9.562;2023-04-25T01:53:37;5.30;;;2.50;;
3415;SDS011;1721;51.238;9.562;2023-04-25T01:56:03;8.43;;;3.05;;
3415;SDS011;1721;51.238;9.562;2023-04-25T01:58:29;5.40;;;2.75;;
3415;SDS011;1721;51.238;9.562;2023-04-25T02:00:55;6.47;;;3.40;;
3415;SDS011;1721;51.238;9.562;2023-04-25T02:03:20;7.03;;;2.67;;
3415;SDS011;1721;51.238;9.562;2023-04-25T02:05:46;7.10;;;3.20;;
3415;SDS011;1721;51.238;9.562;2023-04-25T02:08:11;8.40;;;3.07;;
3415;SDS011;1721;51.238;9.562;2023-04-25T02:10:37;5.73;;;3.00;;
3415;SDS011;1721;51.238;9.562;2023-04-25T02:13:02;6.30;;;2.60;;
3415;SDS011;1721;51.238;9.562;2023-04-25T02:15:30;5.47;;;3.25;;
3415;SDS011;1721;51.238;9.562;2023-04-25T02:17:56;10.20;;;4.43;;
3415;SDS011;1721;51.238;9.562;2023-04-25T02:20:23;9.57;;;3.85;;
3415;SDS011;1721;51.238;9.562;2023-04-25T02:22:49;8.63;;;3.58;;
3415;SDS011;1721;51.238;9.562;2023-04-25T02:25:16;7.43;;;3.63;;
3415;SDS011;1721;51.238;9.562;2023-04-25T02:27:44;7.05;;;3.17;;
3415;SDS011;1721;51.238;9.562;2023-04-25T02:30:10;6.85;;;2.65;;
3415;SDS011;1721;51.238;9.562;2023-04-25T02:32:36;4.77;;;2.57;;
3415;SDS011;1721;51.238;9.562;2023-04-25T02:35:02;6.67;;;3.00;;
3415;SDS011;1721;51.238;9.562;2023-04-25T02:37:31;5.55;;;3.08;;
3415;SDS011;1721;51.238;9.562;2023-04-25T02:39:57;10.40;;;2.75;;
3415;SDS011;1721;51.238;9.562;2023-04-25T02:42:23;7.13;;;3.50;;
3415;SDS011;1721;51.238;9.562;2023-04-25T02:44:49;7.10;;;3.33;;
3415;SDS011;1721;51.238;9.562;2023-04-25T02:47:14;8.17;;;3.40;;
3415;SDS011;1721;51.238;9.562;2023-04-25T02:49:40;7.37;;;3.03;;
3415;SDS011;1721;51.238;9.562;2023-04-25T02:52:05;9.00;;;3.57;;
3415;SDS011;1721;51.238;9.562;2023-04-25T02:54:31;7.33;;;3.77;;
3415;SDS011;1721;51.238;9.562;2023-04-25T02:56:57;11.47;;;3.30;;
3415;SDS011;1721;51.238;9.562;2023-04-25T02:59:22;7.87;;;3.30;;
3415;SDS011;1721;51.238;9.562;2023-04-25T03:01:48;6.37;;;2.93;;
3415;SDS011;1721;51.238;9.562;2023-04-25T03:04:14;8.30;;;3.50;;
3415;SDS011;1721;51.238;9.562;2023-04-25T03:06:39;11.97;;;4.13;;
3415;SDS011;1721;51.238;9.562;2023-04-25T03:09:05;8.60;;;3.60;;
3415;SDS011;1721;51.238;9.562;2023-04-25T03:11:31;14.13;;;3.43;;
3415;SDS011;1721;51.238;9.562;2023-04-25T03:13:56;12.73;;;3.70;;
3415;SDS011;1721;51.238;9.562;2023-04-25T03:16:22;14.00;;;4.47;;
3415;SDS011;1721;51.238;9.562;2023-04-25T03:18:49;7.05;;;4.15;;
3415;SDS011;1721;51.238;9.562;2023-04-25T03:21:15;10.85;;;4.43;;
3415;SDS011;1721;51.238;9.562;2023-04-25T03:23:41;9.13;;;4.20;;
3415;SDS011;1721;51.238;9.562;2023-04-25T03:26:07;14.80;;;4.37;;
3415;SDS011;1721;51.238;9.562;2023-04-25T03:28:32;12.30;;;5.60;;
3415;SDS011;1721;51.238;9.562;2023-04-25T03:30:58;9.30;;;4.47;;
3415;SDS011;1721;51.238;9.562;2023-04-25T03:33:23;8.80;;;4.27;;
3415;SDS011;1721;51.238;9.562;2023-04-25T03:35:49;11.27;;;4.97;;
3415;SDS011;1721;51.238;9.562;2023-04-25T03:38:15;10.90;;;5.43;;
3415;SDS011;1721;51.238;9.562;2023-04-25T03:40:40;13.40;;;5.20;;
3415;SDS011;1721;51.238;9.562;2023-04-25T03:43:06;13.40;;;5.63;;
3415;SDS011;1721;51.238;9.562;2023-04-25T03:45:32;12.70;;;4.73;;
3415;SDS011;1721;51.238;9.562;2023-04-25T03:47:57;16.23;;;4.53;;
3415;SDS011;1721;51.238;9.562;2023-04-25T03:50:23;11.17;;;4.80;;
3415;SDS011;1721;51.238;9.562;2023-04-25T03:52:48;12.50;;;4.40;;
3415;SDS011;1721;51.238;9.562;2023-04-25T03:55:14;11.47;;;4.33;;
3415;SDS011;1721;51.238;9.562;2023-04-25T03:57:40;9.33;;;4.20;;
3415;SDS011;1721;51.238;9.562;2023-04-25T04:00:06;10.80;;;4.17;;
3415;SDS011;1721;51.238;9.562;2023-04-25T04:02:32;10.23;;;3.72;;
3415;SDS011;1721;51.238;9.562;2023-04-25T04:04:59;10.95;;;3.88;;
3415;SDS011;1721;51.238;9.562;2023-04-25T04:07:25;14.30;;;4.10;;
3415;SDS011;1721;51.238;9.562;2023-04-25T04:09:51;9.90;;;3.90;;
3415;SDS011;1721;51.238;9.562;2023-04-25T04:12:16;15.13;;;4.73;;
3415;SDS011;1721;51.238;9.562;2023-04-25T04:14:42;13.20;;;4.20;;
3415;SDS011;1721;51.238;9.562;2023-04-25T04:17:08;9.87;;;3.57;;
3415;SDS011;1721;51.238;9.562;2023-04-25T04:19:33;8.30;;;4.63;;
3415;SDS011;1721;51.238;9.562;2023-04-25T04:21:59;9.90;;;4.00;;
3415;SDS011;1721;51.238;9.562;2023-04-25T04:24:24;11.73;;;3.70;;
3415;SDS011;1721;51.238;9.562;2023-04-25T04:26:50;9.40;;;3.57;;
3415;SDS011;1721;51.238;9.562;2023-04-25T04:29:17;12.18;;;4.15;;
3415;SDS011;1721;51.238;9.562;2023-04-25T04:31:47;10.15;;;4.00;;
3415;SDS011;1721;51.238;9.562;2023-04-25T04:34:17;13.00;;;4.10;;
3415;SDS011;1721;51.238;9.562;2023-04-25T04:36:43;13.77;;;4.35;;
3415;SDS011;1721;51.238;9.562;2023-04-25T04:39:12;7.65;;;3.55;;
3415;SDS011;1721;51.238;9.562;2023-04-25T04:41:38;10.02;;;4.68;;
3415;SDS011;1721;51.238;9.562;2023-04-25T04:44:05;9.93;;;4.40;;
3415;SDS011;1721;51.238;9.562;2023-04-25T04:46:31;8.80;;;4.13;;
3415;SDS011;1721;51.238;9.562;2023-04-25T04:49:02;8.95;;;3.22;;
3415;SDS011;1721;51.238;9.562;2023-04-25T04:51:30;8.85;;;3.50;;
3415;SDS011;1721;51.238;9.562;2023-04-25T04:53:56;8.40;;;3.47;;
3415;SDS011;1721;51.238;9.562;2023-04-25T04:56:23;12.52;;;4.38;;
3415;SDS011;1721;51.238;9.562;2023-04-25T04:58:50;15.25;;;4.60;;
3415;SDS011;1721;51.238;9.562;2023-04-25T05:01:16;10.10;;;3.70;;
3415;SDS011;1721;51.238;9.562;2023-04-25T05:03:41;12.17;;;4.70;;
3415;SDS011;1721;51.238;9.562;2023-04-25T05:06:07;9.63;;;4.60;;
3415;SDS011;1721;51.238;9.562;2023-04-25T05:08:33;16.08;;;4.25;;
3415;SDS011;1721;51.238;9.562;2023-04-25T05:10:59;11.40;;;3.90;;
3415;SDS011;1721;51.238;9.562;2023-04-25T05:13:24;11.27;;;3.90;;
3415;SDS011;1721;51.238;9.562;2023-04-25T05:15:50;15.60;;;4.23;;
3415;SDS011;1721;51.238;9.562;2023-04-25T05:18:16;13.67;;;4.30;;
3415;SDS011;1721;51.238;9.562;2023-04-25T05:20:41;11.43;;;5.70;;
3415;SDS011;1721;51.238;9.562;2023-04-25T05:23:07;7.80;;;3.50;;
3415;SDS011;1721;51.238;9.562;2023-04-25T05:25:32;9.83;;;3.57;;
3415;SDS011;1721;51.238;9.562;2023-04-25T05:27:58;10.73;;;4.27;;
3415;SDS011;1721;51.238;9.562;2023-04-25T05:30:24;14.80;;;4.73;;
3415;SDS011;1721;51.238;9.562;2023-04-25T05:32:49;9.83;;;4.20;;
3415;SDS011;1721;51.238;9.562;2023-04-25T05:35:15;8.97;;;4.30;;
3415;SDS011;1721;51.238;9.562;2023-04-25T05:37:41;8.20;;;3.87;;
3415;SDS011;1721;51.238;9.562;2023-04-25T05:40:07;8.05;;;3.53;;
3415;SDS011;1721;51.238;9.562;2023-04-25T05:42:33;8.73;;;4.07;;
3415;SDS011;1721;51.238;9.562;2023-04-25T05:44:59;10.00;;;4.63;;
3415;SDS011;1721;51.238;9.562;2023-04-25T05:47:25;12.52;;;4.75;;
3415;SDS011;1721;51.238;9.562;2023-04-25T05:49:51;13.80;;;4.83;;
3415;SDS011;1721;51.238;9.562;2023-04-25T05:52:17;9.50;;;4.03;;
3415;SDS011;1721;51.238;9.562;2023-04-25T05:54:42;12.53;;;4.50;;
3415;SDS011;1721;51.238;9.562;2023-04-25T05:57:08;9.17;;;4.23;;
3415;SDS011;1721;51.238;9.562;2023-04-25T05:59:33;10.83;;;4.47;;
3415;SDS011;1721;51.238;9.562;2023-04-25T06:01:59;9.73;;;4.13;;
3415;SDS011;1721;51.238;9.562;2023-04-25T06:04:25;10.88;;;4.55;;
3415;SDS011;1721;51.238;9.562;2023-04-25T06:06:51;14.30;;;5.07;;
3415;SDS011;1721;51.238;9.562;2023-04-25T06:09:16;9.43;;;4.27;;
3415;SDS011;1721;51.238;9.562;2023-04-25T06:11:42;10.97;;;4.93;;
3415;SDS011;1721;51.238;9.562;2023-04-25T06:14:07;10.93;;;4.67;;
3415;SDS011;1721;51.238;9.562;2023-04-25T06:16:33;12.53;;;4.97;;
3415;SDS011;1721;51.238;9.562;2023-04-25T06:18:58;10.90;;;4.90;;
3415;SDS011;1721;51.238;9.562;2023-04-25T06:21:24;10.47;;;4.57;;
3415;SDS011;1721;51.238;9.562;2023-04-25T06:23:50;13.80;;;4.95;;
3415;SDS011;1721;51.238;9.562;2023-04-25T06:26:16;8.50;;;4.57;;
3415;SDS011;1721;51.238;9.562;2023-04-25T06:28:41;14.67;;;5.30;;
3415;SDS011;1721;51.238;9.562;2023-04-25T06:31:07;26.17;;;6.53;;
3415;SDS011;1721;51.238;9.562;2023-04-25T06:33:32;11.00;;;4.70;;
3415;SDS011;1721;51.238;9.562;2023-04-25T06:35:58;6.43;;;2.10;;
3415;SDS011;1721;51.238;9.562;2023-04-25T06:38:23;6.27;;;2.13;;
3415;SDS011;1721;51.238;9.562;2023-04-25T06:40:49;4.23;;;1.50;;
3415;SDS011;1721;51.238;9.562;2023-04-25T06:43:15;7.43;;;1.83;;
3415;SDS011;1721;51.238;9.562;2023-04-25T06:45:40;6.00;;;1.40;;
3415;SDS011;1721;51.238;9.562;2023-04-25T06:48:07;7.65;;;2.10;;
3415;SDS011;1721;51.238;9.562;2023-04-25T06:50:33;7.93;;;2.20;;
3415;SDS011;1721;51.238;9.562;2023-04-25T06:52:59;7.43;;;2.60;;
3415;SDS011;1721;51.238;9.562;2023-04-25T06:55:26;11.35;;;2.50;;
3415;SDS011;1721;51.238;9.562;2023-04-25T06:57:52;8.37;;;2.33;;
3415;SDS011;1721;51.238;9.562;2023-04-25T07:00:17;7.63;;;2.17;;
3415;SDS011;1721;51.238;9.562;2023-04-25T07:02:43;8.68;;;2.30;;
3415;SDS011;1721;51.238;9.562;2023-04-25T07:05:09;16.08;;;2.40;;
3415;SDS011;1721;51.238;9.562;2023-04-25T07:07:35;13.70;;;3.10;;
3415;SDS011;1721;51.238;9.562;2023-04-25T07:10:00;9.23;;;2.43;;
3415;SDS011;1721;51.238;9.562;2023-04-25T07:12:26;11.47;;;2.60;;
3415;SDS011;1721;51.238;9.562;2023-04-25T07:14:51;10.27;;;2.70;;
3415;SDS011;1721;51.238;9.562;2023-04-25T07:17:17;14.87;;;3.27;;
3415;SDS011;1721;51.238;9.562;2023-04-25T07:19:42;10.77;;;2.67;;
3415;SDS011;1721;51.238;9.562;2023-04-25T07:22:08;6.53;;;2.40;;
3415;SDS011;1721;51.238;9.562;2023-04-25T07:24:34;8.83;;;2.63;;
3415;SDS011;1721;51.238;9.562;2023-04-25T07:26:59;11.80;;;2.40;;
3415;SDS011;1721;51.238;9.562;2023-04-25T07:29:26;10.77;;;2.78;;
3415;SDS011;1721;51.238;9.562;2023-04-25T07:31:51;8.00;;;3.23;;
3415;SDS011;1721;51.238;9.562;2023-04-25T07:34:17;6.38;;;2.75;;
3415;SDS011;1721;51.238;9.562;2023-04-25T07:36:43;13.60;;;3.33;;
3415;SDS011;1721;51.238;9.562;2023-04-25T07:39:08;19.70;;;3.20;;
3415;SDS011;1721;51.238;9.562;2023-04-25T07:41:34;9.73;;;2.50;;
3415;SDS011;1721;51.238;9.562;2023-04-25T07:43:59;9.57;;;2.60;;
3415;SDS011;1721;51.238;9.562;2023-04-25T07:46:25;14.93;;;2.67;;
3415;SDS011;1721;51.238;9.562;2023-04-25T07:48:51;8.07;;;2.50;;
3415;SDS011;1721;51.238;9.562;2023-04-25T07:51:16;16.43;;;4.17;;
3415;SDS011;1721;51.238;9.562;2023-04-25T07:53:44;12.77;;;2.42;;
3415;SDS011;1721;51.238;9.562;2023-04-25T07:56:10;8.23;;;2.50;;
3415;SDS011;1721;51.238;9.562;2023-04-25T07:58:36;16.57;;;3.40;;
3415;SDS011;1721;51.238;9.562;2023-04-25T08:01:01;9.37;;;3.00;;
3415;SDS011;1721;51.238;9.562;2023-04-25T08:03:27;12.67;;;3.00;;
3415;SDS011;1721;51.238;9.562;2023-04-25T08:05:52;14.70;;;2.77;;
3415;SDS011;1721;51.238;9.562;2023-04-25T08:08:18;25.67;;;3.20;;
3415;SDS011;1721;51.238;9.562;2023-04-25T08:10:43;7.80;;;2.47;;
3415;SDS011;1721;51.238;9.562;2023-04-25T08:13:12;15.60;;;3.80;;
3415;SDS011;1721;51.238;9.562;2023-04-25T08:15:38;14.90;;;2.97;;
3415;SDS011;1721;51.238;9.562;2023-04-25T08:18:04;16.47;;;3.37;;
3415;SDS011;1721;51.238;9.562;2023-04-25T08:20:30;10.03;;;2.60;;
3415;SDS011;1721;51.238;9.562;2023-04-25T08:22:55;9.53;;;2.60;;
3415;SDS011;1721;51.238;9.562;2023-04-25T08:25:21;12.63;;;2.70;;
3415;SDS011;1721;51.238;9.562;2023-04-25T08:27:46;10.20;;;2.23;;
3415;SDS011;1721;51.238;9.562;2023-04-25T08:30:12;15.23;;;2.77;;
3415;SDS011;1721;51.238;9.562;2023-04-25T08:32:38;9.07;;;2.07;;
3415;SDS011;1721;51.238;9.562;2023-04-25T08:35:03;8.00;;;1.97;;
3415;SDS011;1721;51.238;9.562;2023-04-25T08:37:30;9.65;;;2.40;;
3415;SDS011;1721;51.238;9.562;2023-04-25T08:39:55;13.47;;;2.70;;
3415;SDS011;1721;51.238;9.562;2023-04-25T08:42:21;16.63;;;2.07;;
3415;SDS011;1721;51.238;9.562;2023-04-25T08:44:48;12.82;;;2.60;;
3415;SDS011;1721;51.238;9.562;2023-04-25T08:47:14;11.70;;;3.05;;
3415;SDS011;1721;51.238;9.562;2023-04-25T08:49:42;9.02;;;2.05;;
3415;SDS011;1721;51.238;9.562;2023-04-25T08:52:11;11.07;;;2.22;;
3415;SDS011;1721;51.238;9.562;2023-04-25T08:54:41;7.65;;;2.13;;
3415;SDS011;1721;51.238;9.562;2023-04-25T08:57:09;18.20;;;2.22;;
3415;SDS011;1721;51.238;9.562;2023-04-25T08:59:35;12.40;;;2.03;;
3415;SDS011;1721;51.238;9.562;2023-04-25T09:02:03;9.13;;;2.35;;
3415;SDS011;1721;51.238;9.562;2023-04-25T09:04:31;13.57;;;2.57;;
3415;SDS011;1721;51.238;9.562;2023-04-25T09:06:57;16.92;;;2.83;;
3415;SDS011;1721;51.238;9.562;2023-04-25T09:09:23;16.85;;;2.33;;
3415;SDS011;1721;51.238;9.562;2023-04-25T09:11:49;6.13;;;1.80;;
3415;SDS011;1721;51.238;9.562;2023-04-25T09:14:15;9.30;;;2.50;;
3415;SDS011;1721;51.238;9.562;2023-04-25T09:19:28;8.02;;;1.85;;
3415;SDS011;1721;51.238;9.562;2023-04-25T09:22:00;14.15;;;2.50;;
3415;SDS011;1721;51.238;9.562;2023-04-25T09:27:09;7.78;;;2.22;;
3415;SDS011;1721;51.238;9.562;2023-04-25T09:29:37;13.32;;;2.90;;
3415;SDS011;1721;51.238;9.562;2023-04-25T09:32:22;9.40;;;2.38;;
3415;SDS011;1721;51.238;9.562;2023-04-25T09:34:52;8.75;;;1.83;;
3415;SDS011;1721;51.238;9.562;2023-04-25T09:39:50;7.97;;;2.47;;
3415;SDS011;1721;51.238;9.562;2023-04-25T09:42:18;13.85;;;1.75;;
3415;SDS011;1721;51.238;9.562;2023-04-25T09:44:48;7.22;;;2.30;;
3415;SDS011;1721;51.238;9.562;2023-04-25T09:47:16;13.65;;;2.53;;
3415;SDS011;1721;51.238;9.562;2023-04-25T09:49:42;6.55;;;1.80;;
3415;SDS011;1721;51.238;9.562;2023-04-25T09:52:09;8.35;;;1.70;;
3415;SDS011;1721;51.238;9.562;2023-04-25T09:54:43;11.98;;;2.40;;
3415;SDS011;1721;51.238;9.562;2023-04-25T09:57:14;8.50;;;1.55;;
3415;SDS011;1721;51.238;9.562;2023-04-25T09:59:48;9.00;;;2.15;;
3415;SDS011;1721;51.238;9.562;2023-04-25T10:02:16;5.57;;;2.13;;
3415;SDS011;1721;51.238;9.562;2023-04-25T10:04:49;7.38;;;2.35;;
3415;SDS011;1721;51.238;9.562;2023-04-25T10:07:19;14.38;;;2.10;;
3415;SDS011;1721;51.238;9.562;2023-04-25T10:09:52;10.05;;;1.95;;
3415;SDS011;1721;51.238;9.562;2023-04-25T10:12:26;15.05;;;2.55;;
3415;SDS011;1721;51.238;9.562;2023-04-25T10:14:52;15.82;;;2.78;;
3415;SDS011;1721;51.238;9.562;2023-04-25T10:17:19;9.80;;;1.70;;
3415;SDS011;1721;51.238;9.562;2023-04-25T10:19:45;8.70;;;1.77;;
3415;SDS011;1721;51.238;9.562;2023-04-25T10:22:16;8.43;;;2.03;;
3415;SDS011;1721;51.238;9.562;2023-04-25T10:24:48;11.13;;;1.40;;
3415;SDS011;1721;51.238;9.562;2023-04-25T10:27:15;13.77;;;2.22;;
3415;SDS011;1721;51.238;9.562;2023-04-25T10:29:41;4.13;;;1.33;;
3415;SDS011;1721;51.238;9.562;2023-04-25T10:32:10;7.05;;;1.67;;
3415;SDS011;1721;51.238;9.562;2023-04-25T10:37:05;8.88;;;1.80;;
3415;SDS011;1721;51.238;9.562;2023-04-25T10:39:33;5.72;;;1.67;;
3415;SDS011;1721;51.238;9.562;2023-04-25T10:41:59;6.27;;;1.73;;
3415;SDS011;1721;51.238;9.562;2023-04-25T10:44:28;5.03;;;1.60;;
3415;SDS011;1721;51.238;9.562;2023-04-25T10:46:58;6.43;;;1.70;;
3415;SDS011;1721;51.238;9.562;2023-04-25T10:49:36;5.40;;;1.42;;
3415;SDS011;1721;51.238;9.562;2023-04-25T10:52:11;4.47;;;1.40;;
3415;SDS011;1721;51.238;9.562;2023-04-25T10:54:52;6.05;;;1.75;;
3415;SDS011;1721;51.238;9.562;2023-04-25T10:57:36;4.07;;;1.40;;
3415;SDS011;1721;51.238;9.562;2023-04-25T11:00:16;4.35;;;1.40;;
3415;SDS011;1721;51.238;9.562;2023-04-25T11:02:47;10.13;;;1.52;;
3415;SDS011;1721;51.238;9.562;2023-04-25T11:05:23;8.38;;;1.35;;
3415;SDS011;1721;51.238;9.562;2023-04-25T11:07:58;5.88;;;1.23;;
3415;SDS011;1721;51.238;9.562;2023-04-25T11:10:25;4.45;;;1.50;;
3415;SDS011;1721;51.238;9.562;2023-04-25T11:13:03;6.68;;;1.20;;
3415;SDS011;1721;51.238;9.562;2023-04-25T11:15:28;8.37;;;1.60;;
3415;SDS011;1721;51.238;9.562;2023-04-25T11:17:54;6.63;;;1.17;;
3415;SDS011;1721;51.238;9.562;2023-04-25T11:20:20;8.90;;;1.60;;
3415;SDS011;1721;51.238;9.562;2023-04-25T11:22:47;9.30;;;1.85;;
3415;SDS011;1721;51.238;9.562;2023-04-25T11:25:13;6.87;;;1.67;;
3415;SDS011;1721;51.238;9.562;2023-04-25T11:30:19;8.18;;;1.45;;
3415;SDS011;1721;51.238;9.562;2023-04-25T11:32:45;6.03;;;1.40;;
3415;SDS011;1721;51.238;9.562;2023-04-25T11:35:11;6.10;;;1.40;;
3415;SDS011;1721;51.238;9.562;2023-04-25T11:37:41;5.90;;;1.00;;
3415;SDS011;1721;51.238;9.562;2023-04-25T11:40:08;3.80;;;1.10;;
3415;SDS011;1721;51.238;9.562;2023-04-25T11:42:36;8.98;;;1.38;;
3415;SDS011;1721;51.238;9.562;2023-04-25T11:45:05;11.25;;;1.67;;
3415;SDS011;1721;51.238;9.562;2023-04-25T11:47:32;6.40;;;1.20;;
3415;SDS011;1721;51.238;9.562;2023-04-25T11:49:58;7.70;;;1.45;;
3415;SDS011;1721;51.238;9.562;2023-04-25T11:52:34;10.48;;;1.25;;
3415;SDS011;1721;51.238;9.562;2023-04-25T11:55:01;5.95;;;1.80;;
3415;SDS011;1721;51.238;9.562;2023-04-25T11:57:31;7.45;;;1.50;;
3415;SDS011;1721;51.238;9.562;2023-04-25T12:00:04;3.93;;;1.30;;
3415;SDS011;1721;51.238;9.562;2023-04-25T12:02:45;5.35;;;1.20;;
3415;SDS011;1721;51.238;9.562;2023-04-25T12:05:21;5.85;;;1.63;;
3415;SDS011;1721;51.238;9.562;2023-04-25T12:07:49;4.53;;;1.25;;
3415;SDS011;1721;51.238;9.562;2023-04-25T12:10:15;3.30;;;1.13;;
3415;SDS011;1721;51.238;9.562;2023-04-25T12:12:43;10.40;;;1.42;;
3415;SDS011;1721;51.238;9.562;2023-04-25T12:15:14;4.07;;;1.20;;
3415;SDS011;1721;51.238;9.562;2023-04-25T12:17:48;7.45;;;1.30;;
3415;SDS011;1721;51.238;9.562;2023-04-25T12:20:17;4.65;;;1.50;;
3415;SDS011;1721;51.238;9.562;2023-04-25T12:22:48;5.10;;;1.40;;
3415;SDS011;1721;51.238;9.562;2023-04-25T12:28:15;3.50;;;1.23;;
3415;SDS011;1721;51.238;9.562;2023-04-25T12:33:31;6.00;;;1.17;;
3415;SDS011;1721;51.238;9.562;2023-04-25T12:36:02;6.03;;;1.58;;
3415;SDS011;1721;51.238;9.562;2023-04-25T12:38:35;2.70;;;0.93;;
3415;SDS011;1721;51.238;9.562;2023-04-25T12:41:02;4.85;;;1.10;;
3415;SDS011;1721;51.238;9.562;2023-04-25T12:43:27;5.30;;;1.20;;
3415;SDS011;1721;51.238;9.562;2023-04-25T12:45:54;6.83;;;1.30;;
3415;SDS011;1721;51.238;9.562;2023-04-25T12:48:20;5.75;;;1.20;;
3415;SDS011;1721;51.238;9.562;2023-04-25T12:50:47;7.03;;;1.42;;
3415;SDS011;1721;51.238;9.562;2023-04-25T12:53:14;4.43;;;1.20;;
3415;SDS011;1721;51.238;9.562;2023-04-25T12:55:44;11.70;;;2.13;;
3415;SDS011;1721;51.238;9.562;2023-04-25T12:58:11;7.78;;;1.38;;
3415;SDS011;1721;51.238;9.562;2023-04-25T13:00:38;4.25;;;0.95;;
3415;SDS011;1721;51.238;9.562;2023-04-25T13:03:03;5.87;;;1.13;;
3415;SDS011;1721;51.238;9.562;2023-04-25T13:05:29;5.07;;;1.47;;
3415;SDS011;1721;51.238;9.562;2023-04-25T13:07:55;6.00;;;1.92;;
3415;SDS011;1721;51.238;9.562;2023-04-25T13:10:21;6.70;;;1.77;;
3415;SDS011;1721;51.238;9.562;2023-04-25T13:12:47;7.53;;;1.77;;
3415;SDS011;1721;51.238;9.562;2023-04-25T13:15:12;9.30;;;1.80;;
3415;SDS011;1721;51.238;9.562;2023-04-25T13:17:40;9.63;;;1.80;;
3415;SDS011;1721;51.238;9.562;2023-04-25T13:20:06;5.95;;;1.30;;
3415;SDS011;1721;51.238;9.562;2023-04-25T13:22:34;4.10;;;1.55;;
3415;SDS011;1721;51.238;9.562;2023-04-25T13:25:03;4.82;;;1.05;;
3415;SDS011;1721;51.238;9.562;2023-04-25T13:27:30;3.88;;;1.08;;
3415;SDS011;1721;51.238;9.562;2023-04-25T13:29:57;3.90;;;0.90;;
3415;SDS011;1721;51.238;9.562;2023-04-25T13:32:23;3.73;;;1.17;;
3415;SDS011;1721;51.238;9.562;2023-04-25T13:34:48;5.83;;;1.50;;
3415;SDS011;1721;51.238;9.562;2023-04-25T13:37:14;3.17;;;0.83;;
3415;SDS011;1721;51.238;9.562;2023-04-25T13:39:40;6.90;;;1.00;;
3415;SDS011;1721;51.238;9.562;2023-04-25T13:42:06;5.07;;;1.67;;
3415;SDS011;1721;51.238;9.562;2023-04-25T13:44:31;5.93;;;1.20;;
3415;SDS011;1721;51.238;9.562;2023-04-25T13:46:57;4.57;;;1.10;;
3415;SDS011;1721;51.238;9.562;2023-04-25T13:49:22;4.77;;;1.27;;
3415;SDS011;1721;51.238;9.562;2023-04-25T13:51:48;5.20;;;1.40;;
3415;SDS011;1721;51.238;9.562;2023-04-25T13:54:13;5.10;;;1.50;;
3415;SDS011;1721;51.238;9.562;2023-04-25T13:56:39;5.37;;;1.67;;
3415;SDS011;1721;51.238;9.562;2023-04-25T13:59:07;5.50;;;1.50;;
3415;SDS011;1721;51.238;9.562;2023-04-25T14:01:32;4.53;;;1.60;;
3415;SDS011;1721;51.238;9.562;2023-04-25T14:04:00;5.20;;;1.13;;
3415;SDS011;1721;51.238;9.562;2023-04-25T14:06:26;3.90;;;1.33;;
3415;SDS011;1721;51.238;9.562;2023-04-25T14:08:53;5.53;;;1.40;;
3415;SDS011;1721;51.238;9.562;2023-04-25T14:11:19;4.78;;;1.10;;
3415;SDS011;1721;51.238;9.562;2023-04-25T14:13:45;6.90;;;1.43;;
3415;SDS011;1721;51.238;9.562;2023-04-25T14:16:11;3.35;;;1.25;;
3415;SDS011;1721;51.238;9.562;2023-04-25T14:18:36;5.60;;;1.50;;
3415;SDS011;1721;51.238;9.562;2023-04-25T14:21:02;4.80;;;1.20;;
3415;SDS011;1721;51.238;9.562;2023-04-25T14:23:27;8.53;;;1.67;;
3415;SDS011;1721;51.238;9.562;2023-04-25T14:25:53;5.37;;;1.70;;
3415;SDS011;1721;51.238;9.562;2023-04-25T14:28:19;4.90;;;1.30;;
3415;SDS011;1721;51.238;9.562;2023-04-25T14:30:44;4.87;;;1.27;;
3415;SDS011;1721;51.238;9.562;2023-04-25T14:33:10;6.37;;;1.20;;
3415;SDS011;1721;51.238;9.562;2023-04-25T14:35:36;4.20;;;1.40;;
3415;SDS011;1721;51.238;9.562;2023-04-25T14:38:02;5.87;;;1.30;;
3415;SDS011;1721;51.238;9.562;2023-04-25T14:40:27;5.57;;;1.33;;
3415;SDS011;1721;51.238;9.562;2023-04-25T14:42:53;5.00;;;1.30;;
3415;SDS011;1721;51.238;9.562;2023-04-25T14:45:18;6.90;;;1.20;;
3415;SDS011;1721;51.238;9.562;2023-04-25T14:47:44;4.97;;;1.20;;
3415;SDS011;1721;51.238;9.562;2023-04-25T14:50:10;6.10;;;1.10;;
3415;SDS011;1721;51.238;9.562;2023-04-25T14:52:35;3.30;;;1.00;;
3415;SDS011;1721;51.238;9.562;2023-04-25T14:55:01;4.37;;;1.60;;
3415;SDS011;1721;51.238;9.562;2023-04-25T14:57:33;6.95;;;1.40;;
3415;SDS011;1721;51.238;9.562;2023-04-25T14:59:59;11.15;;;1.60;;
3415;SDS011;1721;51.238;9.562;2023-04-25T15:02:25;4.22;;;1.10;;
3415;SDS011;1721;51.238;9.562;2023-04-25T15:04:51;12.80;;;1.37;;
3415;SDS011;1721;51.238;9.562;2023-04-25T15:07:17;5.05;;;0.90;;
3415;SDS011;1721;51.238;9.562;2023-04-25T15:09:43;4.37;;;1.23;;
3415;SDS011;1721;51.238;9.562;2023-04-25T15:12:08;3.20;;;1.00;;
3415;SDS011;1721;51.238;9.562;2023-04-25T15:14:34;4.45;;;1.20;;
3415;SDS011;1721;51.238;9.562;2023-04-25T15:17:00;10.50;;;1.10;;
3415;SDS011;1721;51.238;9.562;2023-04-25T15:19:26;3.50;;;1.00;;
3415;SDS011;1721;51.238;9.562;2023-04-25T15:21:51;6.10;;;1.23;;
3415;SDS011;1721;51.238;9.562;2023-04-25T15:24:17;6.53;;;1.03;;
3415;SDS011;1721;51.238;9.562;2023-04-25T15:26:43;5.43;;;1.57;;